Aviation Digital Data Service (ADDS)

Output produced by METARs form (0446 UTC 19 February 2019)
found at http://www.aviationweather.gov/metar/data/
 
Forecast for: FOOL (LIBREVILLE/LEON , GA)
Text: TAF FOOL 182300Z 1900/2006 22007KT 9999 SCT011 FEW020CB BKN033
Forecast period: 0000 UTC 19 February 2019 to 0600 UTC 20 February 2019
Forecast type: FROM: standard forecast or significant change
Winds: from the SW (220 degrees) at 8 MPH (7 knots; 3.6 m/s)
Visibility: 6 or more miles 10+ km)
Ceiling: 3300 feet AGL
Clouds: scattered clouds at 1100 feet AGL
few clouds at 2000 feet AGL
broken clouds at 3300 feet AGL
Weather: no significant weather forecast for this period
Text: PROB30
Forecast period: 0300 to 0700 UTC 19 February 2019
Forecast type: TEMPORARY: The following changes expected for less than half the time period
Visibility: 3 miles (5 km)
Ceiling: unknown
Clouds: missing
Weather: TSRA  (rain associated with thunderstorm(s))
Text: TEMPO 1903/1907 5000 TSRA
Forecast period: 2200 UTC 19 February 2019 to 0600 UTC 20 February 2019
Forecast type: TEMPORARY: The following changes expected for less than half the time period
Visibility: missing
Ceiling: unknown
Clouds: missing
Weather: TS  (thunderstorm)